createdAt,value
2018-10-09T00:02:11.257Z,5.43
2018-10-09T00:04:38.719Z,5.46
2018-10-09T00:07:06.503Z,5.47
2018-10-09T00:09:33.950Z,5.47
2018-10-09T00:12:01.377Z,5.48
2018-10-09T00:14:29.128Z,5.47
2018-10-09T00:16:56.574Z,5.48
2018-10-09T00:19:24.059Z,5.49
2018-10-09T00:21:51.797Z,5.51
2018-10-09T00:24:19.265Z,5.51
2018-10-09T00:26:46.799Z,5.54
2018-10-09T00:29:14.377Z,5.54
2018-10-09T00:31:41.863Z,5.56
2018-10-09T00:34:09.319Z,5.54
2018-10-09T00:36:37.126Z,5.55
2018-10-09T00:39:06.952Z,5.56
2018-10-09T00:41:34.413Z,5.55
2018-10-09T00:44:02.323Z,5.54
2018-10-09T00:46:29.824Z,5.55
2018-10-09T00:48:57.354Z,5.53
2018-10-09T00:51:25.074Z,5.54
2018-10-09T00:53:52.594Z,5.52
2018-10-09T00:56:20.130Z,5.51
2018-10-09T00:58:47.870Z,5.51
2018-10-09T01:01:15.316Z,5.50
2018-10-09T01:03:42.831Z,5.49
2018-10-09T01:06:10.508Z,5.49
2018-10-09T01:08:37.969Z,5.47
2018-10-09T01:11:05.587Z,5.46
2018-10-09T01:13:33.313Z,5.45
2018-10-09T01:16:00.761Z,5.42
2018-10-09T01:18:28.284Z,5.40
2018-10-09T01:20:55.867Z,5.37
2018-10-09T01:23:23.607Z,5.35
2018-10-09T01:25:51.087Z,5.34
2018-10-09T01:28:18.852Z,5.32
2018-10-09T01:30:46.375Z,5.29
2018-10-09T01:33:13.850Z,5.26
2018-10-09T01:35:41.405Z,5.23
2018-10-09T01:38:08.920Z,5.22
2018-10-09T01:40:36.338Z,5.21
2018-10-09T01:43:04.104Z,5.23
2018-10-09T01:45:31.585Z,5.24
2018-10-09T01:47:59.019Z,5.25
2018-10-09T01:50:26.730Z,5.26
2018-10-09T01:52:54.163Z,5.24
2018-10-09T01:55:21.644Z,5.23
2018-10-09T01:57:49.324Z,5.20
2018-10-09T02:00:17.362Z,5.20
2018-10-09T02:02:44.785Z,5.20
2018-10-09T02:05:12.414Z,5.19
2018-10-09T02:07:39.921Z,5.20
2018-10-09T02:10:07.357Z,5.20
2018-10-09T02:12:35.064Z,5.22
2018-10-09T02:15:02.576Z,5.21
2018-10-09T02:17:30.103Z,5.20
2018-10-09T02:19:57.683Z,5.19
2018-10-09T02:22:25.141Z,5.17
2018-10-09T02:24:52.647Z,5.17
2018-10-09T02:27:20.224Z,5.17
2018-10-09T02:29:47.831Z,5.18
2018-10-09T02:32:15.290Z,5.19
2018-10-09T02:34:42.874Z,5.20
2018-10-09T02:37:10.403Z,5.19
2018-10-09T02:39:37.831Z,5.20
2018-10-09T02:42:05.620Z,5.21
2018-10-09T02:44:33.115Z,5.21
2018-10-09T02:47:00.788Z,5.20
2018-10-09T02:49:28.429Z,5.21
2018-10-09T02:51:55.900Z,5.21
2018-10-09T02:54:23.328Z,5.22
2018-10-09T02:56:51.057Z,5.22
2018-10-09T02:59:18.513Z,5.22
2018-10-09T03:01:45.977Z,5.22
2018-10-09T03:04:13.683Z,5.21
2018-10-09T03:06:41.200Z,5.21
2018-10-09T03:09:09.037Z,5.21
2018-10-09T03:11:36.660Z,5.23
2018-10-09T03:14:04.414Z,5.22
2018-10-09T03:16:31.912Z,5.21
2018-10-09T03:18:59.644Z,5.19
2018-10-09T03:21:27.143Z,5.19
2018-10-09T03:23:54.734Z,5.19
2018-10-09T03:26:22.286Z,5.18
2018-10-09T03:28:49.781Z,5.18
2018-10-09T03:31:17.274Z,5.18
2018-10-09T03:33:44.964Z,5.18
2018-10-09T03:36:12.620Z,5.17
2018-10-09T03:38:40.042Z,5.17
2018-10-09T03:41:07.788Z,5.16
2018-10-09T03:43:35.389Z,5.16
2018-10-09T03:46:02.858Z,5.15
2018-10-09T03:48:30.735Z,5.14
2018-10-09T03:50:58.165Z,5.13
2018-10-09T03:53:25.681Z,5.13
2018-10-09T03:55:53.441Z,5.13
2018-10-09T03:58:20.933Z,5.13
2018-10-09T04:00:48.404Z,5.12
2018-10-09T04:03:16.146Z,5.13
2018-10-09T04:05:43.626Z,5.14
2018-10-09T04:08:11.113Z,5.12
2018-10-09T04:10:38.728Z,5.11
2018-10-09T04:13:06.210Z,5.09
2018-10-09T04:15:33.762Z,5.05
2018-10-09T04:18:01.455Z,5.03
2018-10-09T04:20:28.905Z,5.01
2018-10-09T04:22:56.333Z,4.99
2018-10-09T04:25:24.014Z,4.99
2018-10-09T04:27:51.498Z,5.00
2018-10-09T04:30:18.966Z,5.00
2018-10-09T04:32:46.528Z,5.00
2018-10-09T04:35:13.948Z,4.98
2018-10-09T04:37:41.468Z,4.97
2018-10-09T04:40:09.106Z,4.96
2018-10-09T04:42:36.702Z,4.95
2018-10-09T04:45:04.322Z,4.95
2018-10-09T04:47:32.135Z,4.93
2018-10-09T04:49:59.812Z,4.90
2018-10-09T04:52:27.250Z,4.90
2018-10-09T04:54:54.849Z,4.88
2018-10-09T04:57:22.301Z,4.85
2018-10-09T04:59:49.792Z,4.79
2018-10-09T05:02:17.761Z,4.75
2018-10-09T05:04:45.292Z,4.70
2018-10-09T05:07:12.750Z,4.66
2018-10-09T05:09:40.385Z,4.64
2018-10-09T05:12:07.819Z,4.65
2018-10-09T05:14:35.235Z,4.66
2018-10-09T05:17:03.003Z,4.67
2018-10-09T05:19:30.492Z,4.68
2018-10-09T05:21:57.992Z,4.69
2018-10-09T05:24:25.572Z,4.67
2018-10-09T05:26:53.145Z,4.67
2018-10-09T05:29:20.615Z,4.66
2018-10-09T05:31:48.309Z,4.64
2018-10-09T05:34:15.797Z,4.64
2018-10-09T05:36:43.245Z,4.66
2018-10-09T05:39:10.929Z,4.66
2018-10-09T05:41:38.476Z,4.64
2018-10-09T05:44:06.245Z,4.63
2018-10-09T05:46:34.241Z,4.64
2018-10-09T05:49:01.773Z,4.65
2018-10-09T05:51:29.426Z,4.64
2018-10-09T05:53:57.092Z,4.65
2018-10-09T05:56:24.566Z,4.66
2018-10-09T05:58:52.186Z,4.67
2018-10-09T06:01:22.675Z,4.66
2018-10-09T06:03:50.272Z,4.67
2018-10-09T06:06:17.818Z,4.67
2018-10-09T06:08:45.635Z,4.53
2018-10-09T06:11:13.142Z,4.69
2018-10-09T06:13:40.643Z,4.70
2018-10-09T06:16:08.356Z,4.72
2018-10-09T06:18:35.816Z,4.72
2018-10-09T06:21:03.344Z,4.75
2018-10-09T06:23:30.990Z,4.77
2018-10-09T06:25:58.507Z,4.77
2018-10-09T06:28:26.124Z,4.79
2018-10-09T06:30:53.834Z,4.80
2018-10-09T06:33:21.317Z,4.83
2018-10-09T06:35:48.788Z,4.84
2018-10-09T06:38:16.688Z,4.86
2018-10-09T06:40:44.221Z,4.86
2018-10-09T06:43:11.693Z,4.85
2018-10-09T06:45:39.428Z,4.86
2018-10-09T06:48:06.893Z,4.87
2018-10-09T06:50:34.436Z,4.87
2018-10-09T06:53:02.434Z,4.87
2018-10-09T06:55:29.949Z,4.85
2018-10-09T06:57:57.421Z,4.85
2018-10-09T07:00:25.228Z,4.86
2018-10-09T07:02:52.779Z,4.85
2018-10-09T07:05:20.520Z,4.87
2018-10-09T07:07:48.326Z,4.88
2018-10-09T07:10:15.837Z,4.90
2018-10-09T07:12:43.383Z,4.91
2018-10-09T07:15:11.154Z,4.91
2018-10-09T07:17:38.630Z,4.91
2018-10-09T07:20:06.169Z,4.90
2018-10-09T07:22:33.918Z,4.90
2018-10-09T07:25:01.424Z,4.88
2018-10-09T07:27:28.842Z,4.86
2018-10-09T07:29:56.528Z,4.88
2018-10-09T07:32:24.002Z,4.89
2018-10-09T07:34:51.483Z,4.90
2018-10-09T07:37:19.252Z,4.93
2018-10-09T07:39:46.761Z,4.96
2018-10-09T07:42:14.237Z,4.98
2018-10-09T07:44:41.883Z,5.00
2018-10-09T07:47:09.405Z,5.02
2018-10-09T07:49:36.906Z,5.05
2018-10-09T07:52:04.572Z,5.08
2018-10-09T07:54:32.201Z,5.11
2018-10-09T07:56:59.649Z,5.12
2018-10-09T07:59:27.454Z,5.14
2018-10-09T08:01:54.981Z,5.17
2018-10-09T08:04:22.541Z,5.19
2018-10-09T08:06:50.282Z,5.21
2018-10-09T08:09:17.745Z,5.25
2018-10-09T08:11:45.272Z,5.27
2018-10-09T08:14:12.871Z,5.30
2018-10-09T08:16:40.403Z,5.31
2018-10-09T08:19:07.928Z,5.34
2018-10-09T08:21:35.650Z,5.36
2018-10-09T08:24:03.169Z,5.39
2018-10-09T08:26:30.664Z,5.44
2018-10-09T08:28:58.551Z,5.48
2018-10-09T08:31:25.987Z,5.51
2018-10-09T08:33:53.470Z,5.56
2018-10-09T08:36:21.194Z,5.60
2018-10-09T08:38:48.659Z,5.64
2018-10-09T08:41:16.171Z,5.68
2018-10-09T08:43:43.934Z,5.72
2018-10-09T08:46:11.501Z,5.73
2018-10-09T08:48:39.284Z,5.78
2018-10-09T08:51:07.098Z,5.82
2018-10-09T08:53:34.590Z,5.85
2018-10-09T08:56:02.291Z,5.87
2018-10-09T08:58:29.860Z,5.89
2018-10-09T09:00:57.396Z,5.92
2018-10-09T09:03:24.872Z,5.97
2018-10-09T09:05:52.583Z,6.00
2018-10-09T09:08:20.113Z,6.07
2018-10-09T09:10:47.581Z,6.13
2018-10-09T09:13:15.393Z,6.19
2018-10-09T09:15:42.922Z,6.24
2018-10-09T09:18:10.415Z,6.32
2018-10-09T09:20:38.269Z,6.41
2018-10-09T09:23:05.628Z,6.47
2018-10-09T09:25:33.080Z,6.52
2018-10-09T09:28:00.780Z,6.58
2018-10-09T09:30:28.237Z,6.64
2018-10-09T09:32:55.900Z,6.69
2018-10-09T09:35:23.540Z,6.76
2018-10-09T09:37:51.038Z,6.82
2018-10-09T09:40:18.527Z,6.57
2018-10-09T09:42:46.218Z,6.93
2018-10-09T09:45:13.834Z,6.99
2018-10-09T09:47:41.348Z,7.03
2018-10-09T09:50:09.189Z,7.08
2018-10-09T09:52:36.663Z,7.13
2018-10-09T09:55:04.247Z,7.17
2018-10-09T09:57:32.359Z,7.20
2018-10-09T09:59:59.843Z,7.24
2018-10-09T10:02:27.358Z,7.27
2018-10-09T10:04:54.897Z,7.28
2018-10-09T10:07:22.377Z,7.33
2018-10-09T10:09:49.887Z,7.36
2018-10-09T10:12:17.623Z,7.40
2018-10-09T10:14:45.096Z,7.44
2018-10-09T10:17:12.539Z,7.46
2018-10-09T10:19:40.207Z,7.47
2018-10-09T10:22:07.721Z,7.49
2018-10-09T10:24:35.195Z,7.53
2018-10-09T10:27:02.869Z,7.57
2018-10-09T10:29:30.385Z,7.62
2018-10-09T10:31:57.918Z,7.66
2018-10-09T10:34:25.640Z,7.70
2018-10-09T10:36:53.088Z,7.73
2018-10-09T10:39:20.502Z,7.77
2018-10-09T10:41:48.250Z,7.80
2018-10-09T10:44:15.737Z,7.84
2018-10-09T10:46:43.247Z,7.88
2018-10-09T10:49:12.876Z,7.85
2018-10-09T10:51:40.437Z,7.96
2018-10-09T10:54:07.980Z,8.02
2018-10-09T10:56:35.867Z,8.06
2018-10-09T10:59:04.143Z,8.10
2018-10-09T11:01:31.857Z,8.17
2018-10-09T11:03:59.680Z,8.20
2018-10-09T11:06:27.269Z,8.22
2018-10-09T11:08:54.748Z,8.25
2018-10-09T11:11:22.334Z,8.31
2018-10-09T11:13:49.747Z,8.35
2018-10-09T11:16:17.831Z,8.39
2018-10-09T11:18:45.528Z,8.40
2018-10-09T11:21:13.023Z,8.43
2018-10-09T11:23:40.508Z,8.47
2018-10-09T11:26:08.233Z,8.51
2018-10-09T11:28:35.707Z,8.54
2018-10-09T11:31:03.220Z,8.57
2018-10-09T11:33:30.876Z,8.61
2018-10-09T11:35:58.432Z,8.65
2018-10-09T11:38:25.881Z,8.69
2018-10-09T11:40:53.741Z,8.71
2018-10-09T11:43:21.303Z,8.76
2018-10-09T11:45:48.795Z,8.75
2018-10-09T11:48:16.711Z,8.76
2018-10-09T11:50:44.263Z,8.79
2018-10-09T11:53:11.743Z,8.80
2018-10-09T11:55:42.266Z,8.83
2018-10-09T11:58:09.757Z,8.85
2018-10-09T12:00:39.169Z,8.85
2018-10-09T12:03:07.018Z,8.87
2018-10-09T12:05:34.657Z,8.88
2018-10-09T12:08:02.386Z,8.89
2018-10-09T12:10:30.085Z,8.90
2018-10-09T12:12:57.518Z,8.91
2018-10-09T12:15:25.468Z,8.90
2018-10-09T12:17:53.152Z,8.92
2018-10-09T12:20:20.672Z,8.92
2018-10-09T12:22:48.193Z,8.92
2018-10-09T12:25:15.912Z,8.92
2018-10-09T12:27:43.407Z,8.95
2018-10-09T12:30:10.888Z,8.95
2018-10-09T12:32:38.654Z,8.95
2018-10-09T12:35:06.555Z,8.96
2018-10-09T12:37:34.080Z,8.96
2018-10-09T12:40:01.697Z,8.95
2018-10-09T12:42:29.179Z,8.92
2018-10-09T12:44:56.625Z,8.93
2018-10-09T12:47:24.323Z,8.93
2018-10-09T12:49:51.869Z,8.91
2018-10-09T12:52:19.335Z,8.90
2018-10-09T12:54:47.067Z,8.89
2018-10-09T12:57:14.599Z,8.91
2018-10-09T12:59:42.102Z,8.91
2018-10-09T13:02:09.906Z,8.92
2018-10-09T13:04:37.423Z,8.92
2018-10-09T13:07:04.977Z,8.92
2018-10-09T13:09:32.766Z,8.92
2018-10-09T13:12:00.186Z,8.93
2018-10-09T13:14:27.665Z,8.94
2018-10-09T13:16:55.336Z,8.93
2018-10-09T13:19:22.791Z,8.92
2018-10-09T13:21:50.790Z,8.92
2018-10-09T13:24:18.029Z,8.92
2018-10-09T13:26:45.607Z,8.92
2018-10-09T13:29:13.141Z,8.93
2018-10-09T13:31:40.814Z,8.92
2018-10-09T13:34:08.341Z,8.93
2018-10-09T13:36:35.801Z,8.93
2018-10-09T13:39:04.718Z,8.93
2018-10-09T13:41:32.196Z,8.92
2018-10-09T13:43:59.708Z,8.94
2018-10-09T13:46:27.430Z,8.92
2018-10-09T13:48:54.859Z,8.93
2018-10-09T13:51:22.406Z,8.95
2018-10-09T13:53:50.065Z,8.96
2018-10-09T13:56:17.525Z,8.98
2018-10-09T13:58:45.021Z,9.01
2018-10-09T14:01:12.743Z,9.01
2018-10-09T14:03:40.454Z,9.02
2018-10-09T14:06:07.967Z,8.99
2018-10-09T14:08:35.682Z,8.98
2018-10-09T14:11:03.252Z,8.98
2018-10-09T14:13:30.698Z,8.99
2018-10-09T14:15:58.463Z,9.00
2018-10-09T14:18:25.947Z,9.01
2018-10-09T14:20:53.423Z,9.01
2018-10-09T14:23:21.015Z,9.01
2018-10-09T14:25:49.576Z,9.03
2018-10-09T14:28:17.079Z,9.05
2018-10-09T14:30:44.675Z,9.03
2018-10-09T14:33:12.135Z,9.02
2018-10-09T14:35:39.661Z,9.03
2018-10-09T14:38:07.354Z,9.04
2018-10-09T14:40:34.936Z,9.05
2018-10-09T14:43:02.488Z,9.06
2018-10-09T14:45:30.114Z,9.06
2018-10-09T14:47:57.634Z,9.08
2018-10-09T14:50:25.138Z,9.07
2018-10-09T14:52:53.009Z,9.08
2018-10-09T14:55:20.461Z,9.09
2018-10-09T14:57:48.056Z,9.11
2018-10-09T15:00:15.970Z,9.13
2018-10-09T15:02:43.489Z,9.14
2018-10-09T15:05:11.282Z,9.15
2018-10-09T15:07:39.113Z,9.17
2018-10-09T15:10:06.666Z,9.17
2018-10-09T15:12:34.291Z,9.17
2018-10-09T15:15:01.928Z,9.17
2018-10-09T15:17:29.532Z,9.17
2018-10-09T15:19:56.954Z,9.17
2018-10-09T15:22:24.636Z,9.17
2018-10-09T15:24:52.834Z,9.16
2018-10-09T15:27:20.285Z,9.15
2018-10-09T15:29:47.871Z,9.12
2018-10-09T15:32:15.417Z,9.11
2018-10-09T15:34:43.026Z,9.10
2018-10-09T15:37:10.605Z,9.07
2018-10-09T15:39:38.143Z,9.08
2018-10-09T15:42:05.767Z,9.09
2018-10-09T15:44:33.456Z,9.07
2018-10-09T15:47:00.966Z,9.06
2018-10-09T15:49:28.526Z,9.06
2018-10-09T15:51:56.142Z,9.06
2018-10-09T15:54:23.555Z,9.05
2018-10-09T15:56:51.082Z,9.05
2018-10-09T15:59:18.795Z,9.03
2018-10-09T16:01:46.285Z,9.03
2018-10-09T16:04:13.827Z,9.02
2018-10-09T16:06:41.717Z,9.02
2018-10-09T16:09:10.138Z,9.03
2018-10-09T16:11:37.685Z,9.05
2018-10-09T16:14:05.348Z,9.06
2018-10-09T16:16:32.875Z,9.08
2018-10-09T16:19:00.316Z,9.09
2018-10-09T16:21:27.877Z,9.11
2018-10-09T16:23:55.421Z,9.14
2018-10-09T16:26:22.920Z,9.17
2018-10-09T16:28:50.409Z,9.20
2018-10-09T16:31:17.899Z,9.22
2018-10-09T16:33:45.377Z,9.22
2018-10-09T16:36:12.991Z,9.24
2018-10-09T16:38:40.422Z,9.26
2018-10-09T16:41:08.334Z,9.27
2018-10-09T16:43:35.936Z,9.26
2018-10-09T16:46:04.126Z,9.26
2018-10-09T16:48:31.668Z,9.25
2018-10-09T16:50:59.523Z,8.94
2018-10-09T16:53:27.183Z,9.25
2018-10-09T16:55:54.533Z,9.24
2018-10-09T16:58:22.073Z,9.23
2018-10-09T17:00:49.663Z,9.24
2018-10-09T17:03:17.141Z,9.25
2018-10-09T17:05:44.930Z,9.27
2018-10-09T17:08:12.520Z,9.27
2018-10-09T17:10:40.096Z,9.28
2018-10-09T17:13:07.922Z,9.27
2018-10-09T17:15:35.463Z,9.28
2018-10-09T17:18:03.019Z,9.29
2018-10-09T17:20:30.626Z,9.28
2018-10-09T17:22:58.131Z,9.25
2018-10-09T17:25:25.614Z,9.23
2018-10-09T17:27:53.266Z,9.23
2018-10-09T17:30:20.778Z,9.23
2018-10-09T17:32:48.227Z,9.24
2018-10-09T17:35:15.951Z,9.24
2018-10-09T17:37:43.394Z,9.23
2018-10-09T17:40:10.955Z,9.23
2018-10-09T17:42:38.578Z,9.24
2018-10-09T17:45:06.172Z,9.22
2018-10-09T17:47:33.659Z,9.20
2018-10-09T17:50:01.277Z,9.21
2018-10-09T17:52:28.723Z,9.19
2018-10-09T17:54:56.207Z,9.20
2018-10-09T17:57:23.760Z,9.22
2018-10-09T17:59:51.239Z,9.23
2018-10-09T18:02:18.781Z,9.22
2018-10-09T18:04:46.414Z,9.22
2018-10-09T18:07:14.030Z,9.22
2018-10-09T18:09:41.923Z,9.25
2018-10-09T18:12:09.541Z,9.26
2018-10-09T18:14:36.980Z,9.27
2018-10-09T18:17:04.455Z,9.28
2018-10-09T18:19:31.991Z,9.28
2018-10-09T18:21:59.479Z,9.29
2018-10-09T18:24:26.977Z,9.31
2018-10-09T18:26:54.486Z,9.32
2018-10-09T18:29:21.976Z,9.33
2018-10-09T18:35:19.967Z,9.33
2018-10-09T18:37:47.413Z,9.32
2018-10-09T18:40:14.877Z,9.32
2018-10-09T18:42:42.481Z,9.33
2018-10-09T18:45:10.033Z,9.32
2018-10-09T18:47:40.410Z,9.33
2018-10-09T18:50:07.945Z,9.34
2018-10-09T18:52:35.408Z,9.34
2018-10-09T18:55:02.982Z,9.35
2018-10-09T18:57:30.577Z,9.35
2018-10-09T18:59:58.063Z,9.34
2018-10-09T19:02:25.591Z,9.33
2018-10-09T19:04:53.359Z,9.34
2018-10-09T19:07:20.843Z,9.34
2018-10-09T19:12:30.575Z,9.33
2018-10-09T19:14:58.085Z,9.33
2018-10-09T19:17:25.656Z,9.34
2018-10-09T19:19:53.157Z,9.33
2018-10-09T19:22:20.708Z,9.33
2018-10-09T19:24:48.206Z,9.33
2018-10-09T19:27:16.069Z,9.33
2018-10-09T19:29:43.647Z,9.32
2018-10-09T19:32:11.273Z,9.31
2018-10-09T19:34:39.085Z,9.29
2018-10-09T19:37:06.549Z,9.28
2018-10-09T19:39:34.057Z,9.28
2018-10-09T19:42:01.728Z,9.29
2018-10-09T19:44:29.238Z,9.29
2018-10-09T19:46:56.812Z,9.29
2018-10-09T19:49:24.266Z,9.27
2018-10-09T19:51:51.724Z,9.26
2018-10-09T19:54:19.230Z,9.25
2018-10-09T19:56:46.627Z,9.24
2018-10-09T19:59:14.078Z,9.22
2018-10-09T20:01:41.570Z,9.24
2018-10-09T20:04:09.180Z,9.23
2018-10-09T20:06:36.728Z,9.22
2018-10-09T20:09:08.012Z,9.22
2018-10-09T20:11:35.835Z,9.20
2018-10-09T20:14:03.381Z,9.20
2018-10-09T20:16:30.866Z,9.20
2018-10-09T20:18:58.512Z,9.20
2018-10-09T20:21:25.989Z,9.20
2018-10-09T20:23:53.523Z,9.21
2018-10-09T20:26:51.981Z,9.22
2018-10-09T20:29:19.493Z,9.23
2018-10-09T20:31:46.985Z,9.24
2018-10-09T20:34:14.541Z,8.92
2018-10-09T20:36:42.001Z,9.27
2018-10-09T20:39:09.519Z,9.27
2018-10-09T20:41:37.014Z,9.27
2018-10-09T20:44:04.480Z,9.29
2018-10-09T20:46:31.957Z,9.28
2018-10-09T20:48:59.605Z,9.27
2018-10-09T20:51:27.105Z,9.27
2018-10-09T20:53:54.585Z,9.26
2018-10-09T20:56:22.195Z,9.25
2018-10-09T20:58:49.622Z,9.25
2018-10-09T21:01:17.104Z,9.26
2018-10-09T21:03:44.602Z,9.27
2018-10-09T21:06:12.250Z,9.23
2018-10-09T21:08:39.664Z,9.20
2018-10-09T21:11:07.703Z,9.20
2018-10-09T21:13:35.497Z,9.20
2018-10-09T21:16:02.998Z,9.20
2018-10-09T21:18:30.666Z,9.17
2018-10-09T21:20:58.137Z,9.17
2018-10-09T21:23:25.644Z,9.19
2018-10-09T21:25:53.370Z,9.21
2018-10-09T21:28:20.845Z,9.21
2018-10-09T21:30:48.374Z,9.22
2018-10-09T21:33:15.951Z,8.89
2018-10-09T21:35:43.435Z,9.22
2018-10-09T21:38:10.960Z,9.22
2018-10-09T21:40:38.512Z,9.24
2018-10-09T21:43:06.086Z,9.24
2018-10-09T21:45:33.590Z,9.23
2018-10-09T21:48:01.673Z,9.23
2018-10-09T21:50:29.130Z,9.22
2018-10-09T21:52:57.207Z,9.24
2018-10-09T21:55:25.027Z,9.24
2018-10-09T21:57:52.501Z,9.24
2018-10-09T22:00:19.981Z,9.25
2018-10-09T22:02:47.700Z,9.25
2018-10-09T22:05:15.103Z,9.25
2018-10-09T22:07:42.589Z,9.26
2018-10-09T22:10:10.433Z,9.28
2018-10-09T22:12:37.974Z,9.26
2018-10-09T22:15:06.289Z,9.26
2018-10-09T22:17:34.271Z,9.26
2018-10-09T22:20:01.791Z,9.25
2018-10-09T22:22:29.339Z,9.26
2018-10-09T22:24:56.953Z,9.26
2018-10-09T22:27:24.450Z,9.26
2018-10-09T22:29:52.781Z,9.24
2018-10-09T22:32:20.598Z,9.23
2018-10-09T22:34:48.403Z,9.25
2018-10-09T22:37:15.973Z,9.25
2018-10-09T22:39:43.635Z,9.25
2018-10-09T22:42:11.119Z,9.26
2018-10-09T22:44:38.566Z,9.27
2018-10-09T22:47:06.240Z,9.27
2018-10-09T22:49:33.744Z,9.27
2018-10-09T22:52:01.165Z,9.28
2018-10-09T22:54:28.895Z,9.29
2018-10-09T22:56:56.445Z,9.29
2018-10-09T22:59:24.305Z,9.28
2018-10-09T23:01:51.909Z,9.27
2018-10-09T23:04:19.386Z,9.27
2018-10-09T23:06:47.016Z,9.25
2018-10-09T23:09:14.576Z,9.26
2018-10-09T23:11:42.080Z,9.25
2018-10-09T23:14:09.586Z,9.25
2018-10-09T23:16:37.634Z,9.24
2018-10-09T23:19:05.493Z,9.25
2018-10-09T23:21:32.911Z,9.25
2018-10-09T23:24:00.601Z,9.27
2018-10-09T23:26:28.176Z,9.27
2018-10-09T23:28:55.670Z,9.25
2018-10-09T23:31:54.063Z,9.26
2018-10-09T23:34:21.554Z,9.27
2018-10-09T23:36:49.060Z,9.27
2018-10-09T23:39:16.718Z,9.25
2018-10-09T23:41:44.232Z,9.22
2018-10-09T23:44:11.687Z,8.87
2018-10-09T23:46:39.293Z,9.20
2018-10-09T23:49:06.738Z,9.21
2018-10-09T23:51:34.217Z,9.21
2018-10-09T23:54:01.761Z,9.24
2018-10-09T23:56:29.228Z,9.21
2018-10-09T23:58:56.739Z,9.22
